sensor_id;sensor_type;location;lat;lon;timestamp;P1;P2;P0
72023;PMS5003;59889;50.700;5.440;2023-05-21T00:00:40;10;10;
72023;PMS5003;59889;50.700;5.440;2023-05-21T00:03:05;9;8;
72023;PMS5003;59889;50.700;5.440;2023-05-21T00:05:30;8;8;
72023;PMS5003;59889;50.700;5.440;2023-05-21T00:07:55;9;8;
72023;PMS5003;59889;50.700;5.440;2023-05-21T00:10:20;10;10;
72023;PMS5003;59889;50.700;5.440;2023-05-21T00:12:45;7;7;
72023;PMS5003;59889;50.700;5.440;2023-05-21T00:15:10;9;9;
72023;PMS5003;59889;50.700;5.440;2023-05-21T00:17:35;9;9;
72023;PMS5003;59889;50.700;5.440;2023-05-21T00:20:00;8;8;
72023;PMS5003;59889;50.700;5.440;2023-05-21T00:22:25;7;7;
72023;PMS5003;59889;50.700;5.440;2023-05-21T00:24:50;8;8;
72023;PMS5003;59889;50.700;5.440;2023-05-21T00:27:15;8;8;
72023;PMS5003;59889;50.700;5.440;2023-05-21T00:29:40;10;9;
72023;PMS5003;59889;50.700;5.440;2023-05-21T00:32:05;8;8;
72023;PMS5003;59889;50.700;5.440;2023-05-21T00:34:30;7;7;
72023;PMS5003;59889;50.700;5.440;2023-05-21T00:36:55;10;10;
72023;PMS5003;59889;50.700;5.440;2023-05-21T00:39:20;7;7;
72023;PMS5003;59889;50.700;5.440;2023-05-21T00:41:45;9;9;
72023;PMS5003;59889;50.700;5.440;2023-05-21T00:44:10;7;7;
72023;PMS5003;59889;50.700;5.440;2023-05-21T00:46:35;7;7;
72023;PMS5003;59889;50.700;5.440;2023-05-21T00:49:00;7;7;
72023;PMS5003;59889;50.700;5.440;2023-05-21T00:51:25;7;7;
72023;PMS5003;59889;50.700;5.440;2023-05-21T00:53:51;8;8;
72023;PMS5003;59889;50.700;5.440;2023-05-21T00:56:15;9;9;
72023;PMS5003;59889;50.700;5.440;2023-05-21T00:58:40;7;7;
72023;PMS5003;59889;50.700;5.440;2023-05-21T01:01:06;7;7;
72023;PMS5003;59889;50.700;5.440;2023-05-21T01:03:31;8;7;
72023;PMS5003;59889;50.700;5.440;2023-05-21T01:05:55;7;7;
72023;PMS5003;59889;50.700;5.440;2023-05-21T01:08:20;8;8;
72023;PMS5003;59889;50.700;5.440;2023-05-21T01:10:45;6;6;
72023;PMS5003;59889;50.700;5.440;2023-05-21T01:13:10;8;8;
72023;PMS5003;59889;50.700;5.440;2023-05-21T01:15:35;8;8;
72023;PMS5003;59889;50.700;5.440;2023-05-21T01:18:00;8;8;
72023;PMS5003;59889;50.700;5.440;2023-05-21T01:20:25;6;6;
72023;PMS5003;59889;50.700;5.440;2023-05-21T01:22:51;7;6;
72023;PMS5003;59889;50.700;5.440;2023-05-21T01:25:16;8;8;
72023;PMS5003;59889;50.700;5.440;2023-05-21T01:27:41;7;7;
72023;PMS5003;59889;50.700;5.440;2023-05-21T01:30:06;12;10;
72023;PMS5003;59889;50.700;5.440;2023-05-21T01:32:32;8;7;
72023;PMS5003;59889;50.700;5.440;2023-05-21T01:34:58;9;9;
72023;PMS5003;59889;50.700;5.440;2023-05-21T01:37:22;6;5;
72023;PMS5003;59889;50.700;5.440;2023-05-21T01:39:48;10;10;
72023;PMS5003;59889;50.700;5.440;2023-05-21T01:42:12;8;8;
72023;PMS5003;59889;50.700;5.440;2023-05-21T01:44:36;6;6;
72023;PMS5003;59889;50.700;5.440;2023-05-21T01:47:02;7;7;
72023;PMS5003;59889;50.700;5.440;2023-05-21T01:49:26;6;6;
72023;PMS5003;59889;50.700;5.440;2023-05-21T01:51:51;8;8;
72023;PMS5003;59889;50.700;5.440;2023-05-21T01:54:16;8;8;
72023;PMS5003;59889;50.700;5.440;2023-05-21T01:56:41;9;9;
72023;PMS5003;59889;50.700;5.440;2023-05-21T01:59:06;8;8;
72023;PMS5003;59889;50.700;5.440;2023-05-21T02:01:31;6;6;
72023;PMS5003;59889;50.700;5.440;2023-05-21T02:03:56;7;7;
72023;PMS5003;59889;50.700;5.440;2023-05-21T02:06:21;7;7;
72023;PMS5003;59889;50.700;5.440;2023-05-21T02:08:46;5;5;
72023;PMS5003;59889;50.700;5.440;2023-05-21T02:11:11;7;7;
72023;PMS5003;59889;50.700;5.440;2023-05-21T02:13:36;8;7;
72023;PMS5003;59889;50.700;5.440;2023-05-21T02:16:02;6;6;
72023;PMS5003;59889;50.700;5.440;2023-05-21T02:18:26;7;7;
72023;PMS5003;59889;50.700;5.440;2023-05-21T02:20:51;7;7;
72023;PMS5003;59889;50.700;5.440;2023-05-21T02:23:17;7;7;
72023;PMS5003;59889;50.700;5.440;2023-05-21T02:25:42;7;7;
72023;PMS5003;59889;50.700;5.440;2023-05-21T02:28:06;8;8;
72023;PMS5003;59889;50.700;5.440;2023-05-21T02:30:32;9;8;
72023;PMS5003;59889;50.700;5.440;2023-05-21T02:32:57;7;6;
72023;PMS5003;59889;50.700;5.440;2023-05-21T02:35:22;7;7;
72023;PMS5003;59889;50.700;5.440;2023-05-21T02:37:47;8;7;
72023;PMS5003;59889;50.700;5.440;2023-05-21T02:40:12;7;7;
72023;PMS5003;59889;50.700;5.440;2023-05-21T02:42:37;7;7;
72023;PMS5003;59889;50.700;5.440;2023-05-21T02:45:02;8;7;
72023;PMS5003;59889;50.700;5.440;2023-05-21T02:47:27;8;7;
72023;PMS5003;59889;50.700;5.440;2023-05-21T02:49:52;8;8;
72023;PMS5003;59889;50.700;5.440;2023-05-21T02:52:17;6;6;
72023;PMS5003;59889;50.700;5.440;2023-05-21T02:54:42;7;7;
72023;PMS5003;59889;50.700;5.440;2023-05-21T02:57:07;6;6;
72023;PMS5003;59889;50.700;5.440;2023-05-21T02:59:32;7;7;
72023;PMS5003;59889;50.700;5.440;2023-05-21T03:01:57;7;7;
72023;PMS5003;59889;50.700;5.440;2023-05-21T03:04:22;7;7;
72023;PMS5003;59889;50.700;5.440;2023-05-21T03:06:47;6;5;
72023;PMS5003;59889;50.700;5.440;2023-05-21T03:09:12;8;8;
72023;PMS5003;59889;50.700;5.440;2023-05-21T03:11:37;6;6;
72023;PMS5003;59889;50.700;5.440;2023-05-21T03:14:02;9;8;
72023;PMS5003;59889;50.700;5.440;2023-05-21T03:16:27;7;6;
72023;PMS5003;59889;50.700;5.440;2023-05-21T03:18:52;7;7;
72023;PMS5003;59889;50.700;5.440;2023-05-21T03:21:17;8;8;
72023;PMS5003;59889;50.700;5.440;2023-05-21T03:23:42;7;7;
72023;PMS5003;59889;50.700;5.440;2023-05-21T03:26:07;7;7;
72023;PMS5003;59889;50.700;5.440;2023-05-21T03:28:32;7;7;
72023;PMS5003;59889;50.700;5.440;2023-05-21T03:30:57;8;7;
72023;PMS5003;59889;50.700;5.440;2023-05-21T03:33:22;6;6;
72023;PMS5003;59889;50.700;5.440;2023-05-21T03:35:47;7;7;
72023;PMS5003;59889;50.700;5.440;2023-05-21T03:38:12;8;8;
72023;PMS5003;59889;50.700;5.440;2023-05-21T03:40:37;6;6;
72023;PMS5003;59889;50.700;5.440;2023-05-21T03:43:02;6;6;
72023;PMS5003;59889;50.700;5.440;2023-05-21T03:45:27;8;7;
72023;PMS5003;59889;50.700;5.440;2023-05-21T03:47:52;7;7;
72023;PMS5003;59889;50.700;5.440;2023-05-21T03:50:17;6;5;
72023;PMS5003;59889;50.700;5.440;2023-05-21T03:52:42;7;6;
72023;PMS5003;59889;50.700;5.440;2023-05-21T03:55:08;6;6;
72023;PMS5003;59889;50.700;5.440;2023-05-21T03:57:32;6;6;
72023;PMS5003;59889;50.700;5.440;2023-05-21T03:59:57;8;8;
72023;PMS5003;59889;50.700;5.440;2023-05-21T04:02:22;8;8;
72023;PMS5003;59889;50.700;5.440;2023-05-21T04:04:47;6;6;
72023;PMS5003;59889;50.700;5.440;2023-05-21T04:07:12;5;5;
72023;PMS5003;59889;50.700;5.440;2023-05-21T04:09:37;7;7;
72023;PMS5003;59889;50.700;5.440;2023-05-21T04:12:02;7;7;
72023;PMS5003;59889;50.700;5.440;2023-05-21T04:14:27;6;6;
72023;PMS5003;59889;50.700;5.440;2023-05-21T04:16:52;6;6;
72023;PMS5003;59889;50.700;5.440;2023-05-21T04:19:17;7;7;
72023;PMS5003;59889;50.700;5.440;2023-05-21T04:21:42;6;6;
72023;PMS5003;59889;50.700;5.440;2023-05-21T04:24:07;6;6;
72023;PMS5003;59889;50.700;5.440;2023-05-21T04:26:32;7;7;
72023;PMS5003;59889;50.700;5.440;2023-05-21T04:28:57;6;6;
72023;PMS5003;59889;50.700;5.440;2023-05-21T04:31:22;3;3;
72023;PMS5003;59889;50.700;5.440;2023-05-21T04:33:47;6;6;
72023;PMS5003;59889;50.700;5.440;2023-05-21T04:36:12;7;7;
72023;PMS5003;59889;50.700;5.440;2023-05-21T04:38:37;6;6;
72023;PMS5003;59889;50.700;5.440;2023-05-21T04:41:02;8;8;
72023;PMS5003;59889;50.700;5.440;2023-05-21T04:43:28;6;6;
72023;PMS5003;59889;50.700;5.440;2023-05-21T04:45:52;6;5;
72023;PMS5003;59889;50.700;5.440;2023-05-21T04:48:17;6;6;
72023;PMS5003;59889;50.700;5.440;2023-05-21T04:50:43;7;7;
72023;PMS5003;59889;50.700;5.440;2023-05-21T04:53:08;7;6;
72023;PMS5003;59889;50.700;5.440;2023-05-21T04:55:33;13;12;
72023;PMS5003;59889;50.700;5.440;2023-05-21T04:57:58;11;11;
72023;PMS5003;59889;50.700;5.440;2023-05-21T05:00:23;12;11;
72023;PMS5003;59889;50.700;5.440;2023-05-21T05:02:48;13;13;
72023;PMS5003;59889;50.700;5.440;2023-05-21T05:05:13;15;13;
72023;PMS5003;59889;50.700;5.440;2023-05-21T05:07:38;13;12;
72023;PMS5003;59889;50.700;5.440;2023-05-21T05:10:03;14;13;
72023;PMS5003;59889;50.700;5.440;2023-05-21T05:12:28;12;12;
72023;PMS5003;59889;50.700;5.440;2023-05-21T05:14:53;13;13;
72023;PMS5003;59889;50.700;5.440;2023-05-21T05:17:18;15;15;
72023;PMS5003;59889;50.700;5.440;2023-05-21T05:19:43;13;12;
72023;PMS5003;59889;50.700;5.440;2023-05-21T05:22:09;12;12;
72023;PMS5003;59889;50.700;5.440;2023-05-21T05:24:33;14;13;
72023;PMS5003;59889;50.700;5.440;2023-05-21T05:26:58;14;14;
72023;PMS5003;59889;50.700;5.440;2023-05-21T05:29:23;13;13;
72023;PMS5003;59889;50.700;5.440;2023-05-21T05:31:49;13;13;
72023;PMS5003;59889;50.700;5.440;2023-05-21T05:34:14;12;12;
72023;PMS5003;59889;50.700;5.440;2023-05-21T05:36:39;15;14;
72023;PMS5003;59889;50.700;5.440;2023-05-21T05:39:04;15;14;
72023;PMS5003;59889;50.700;5.440;2023-05-21T05:41:30;13;13;
72023;PMS5003;59889;50.700;5.440;2023-05-21T05:43:55;11;11;
72023;PMS5003;59889;50.700;5.440;2023-05-21T05:46:20;14;12;
72023;PMS5003;59889;50.700;5.440;2023-05-21T05:48:45;11;11;
72023;PMS5003;59889;50.700;5.440;2023-05-21T05:51:11;11;11;
72023;PMS5003;59889;50.700;5.440;2023-05-21T05:53:37;15;15;
72023;PMS5003;59889;50.700;5.440;2023-05-21T05:56:02;15;14;
72023;PMS5003;59889;50.700;5.440;2023-05-21T05:58:28;12;12;
72023;PMS5003;59889;50.700;5.440;2023-05-21T06:00:52;13;11;
72023;PMS5003;59889;50.700;5.440;2023-05-21T06:03:17;11;11;
72023;PMS5003;59889;50.700;5.440;2023-05-21T06:05:42;15;13;
72023;PMS5003;59889;50.700;5.440;2023-05-21T06:08:07;13;13;
72023;PMS5003;59889;50.700;5.440;2023-05-21T06:10:32;15;14;
72023;PMS5003;59889;50.700;5.440;2023-05-21T06:12:57;13;13;
72023;PMS5003;59889;50.700;5.440;2023-05-21T06:15:22;15;14;
72023;PMS5003;59889;50.700;5.440;2023-05-21T06:17:48;15;15;
72023;PMS5003;59889;50.700;5.440;2023-05-21T06:20:13;15;13;
72023;PMS5003;59889;50.700;5.440;2023-05-21T06:22:38;19;17;
72023;PMS5003;59889;50.700;5.440;2023-05-21T06:25:03;13;12;
72023;PMS5003;59889;50.700;5.440;2023-05-21T06:27:28;15;14;
72023;PMS5003;59889;50.700;5.440;2023-05-21T06:29:53;15;15;
72023;PMS5003;59889;50.700;5.440;2023-05-21T06:32:18;16;15;
72023;PMS5003;59889;50.700;5.440;2023-05-21T06:34:44;17;15;
72023;PMS5003;59889;50.700;5.440;2023-05-21T06:37:09;15;15;
72023;PMS5003;59889;50.700;5.440;2023-05-21T06:39:34;17;16;
72023;PMS5003;59889;50.700;5.440;2023-05-21T06:42:00;14;14;
72023;PMS5003;59889;50.700;5.440;2023-05-21T06:44:25;17;16;
72023;PMS5003;59889;50.700;5.440;2023-05-21T06:46:50;15;14;
72023;PMS5003;59889;50.700;5.440;2023-05-21T06:49:16;17;15;
72023;PMS5003;59889;50.700;5.440;2023-05-21T06:51:41;18;15;
72023;PMS5003;59889;50.700;5.440;2023-05-21T06:54:06;18;16;
72023;PMS5003;59889;50.700;5.440;2023-05-21T06:56:31;21;20;
72023;PMS5003;59889;50.700;5.440;2023-05-21T06:58:56;17;16;
72023;PMS5003;59889;50.700;5.440;2023-05-21T07:01:22;17;16;
72023;PMS5003;59889;50.700;5.440;2023-05-21T07:03:47;18;18;
72023;PMS5003;59889;50.700;5.440;2023-05-21T07:06:12;17;17;
72023;PMS5003;59889;50.700;5.440;2023-05-21T07:08:37;15;15;
72023;PMS5003;59889;50.700;5.440;2023-05-21T07:11:03;19;16;
72023;PMS5003;59889;50.700;5.440;2023-05-21T07:13:28;17;16;
72023;PMS5003;59889;50.700;5.440;2023-05-21T07:15:53;15;14;
72023;PMS5003;59889;50.700;5.440;2023-05-21T07:18:18;18;17;
72023;PMS5003;59889;50.700;5.440;2023-05-21T07:20:43;15;15;
72023;PMS5003;59889;50.700;5.440;2023-05-21T07:23:08;19;17;
72023;PMS5003;59889;50.700;5.440;2023-05-21T07:25:33;15;15;
72023;PMS5003;59889;50.700;5.440;2023-05-21T07:27:58;14;14;
72023;PMS5003;59889;50.700;5.440;2023-05-21T07:30:23;18;18;
72023;PMS5003;59889;50.700;5.440;2023-05-21T07:32:49;15;15;
72023;PMS5003;59889;50.700;5.440;2023-05-21T07:35:14;13;13;
72023;PMS5003;59889;50.700;5.440;2023-05-21T07:37:39;16;15;
72023;PMS5003;59889;50.700;5.440;2023-05-21T07:40:05;14;14;
72023;PMS5003;59889;50.700;5.440;2023-05-21T07:42:30;16;16;
72023;PMS5003;59889;50.700;5.440;2023-05-21T07:44:55;15;15;
72023;PMS5003;59889;50.700;5.440;2023-05-21T07:47:20;16;15;
72023;PMS5003;59889;50.700;5.440;2023-05-21T07:49:46;17;16;
72023;PMS5003;59889;50.700;5.440;2023-05-21T07:52:11;16;16;
72023;PMS5003;59889;50.700;5.440;2023-05-21T07:54:36;15;15;
72023;PMS5003;59889;50.700;5.440;2023-05-21T07:57:01;17;16;
72023;PMS5003;59889;50.700;5.440;2023-05-21T07:59:27;16;16;
72023;PMS5003;59889;50.700;5.440;2023-05-21T08:01:52;18;17;
72023;PMS5003;59889;50.700;5.440;2023-05-21T08:04:17;16;16;
72023;PMS5003;59889;50.700;5.440;2023-05-21T08:06:43;16;16;
72023;PMS5003;59889;50.700;5.440;2023-05-21T08:09:08;17;16;
72023;PMS5003;59889;50.700;5.440;2023-05-21T08:11:33;24;22;
72023;PMS5003;59889;50.700;5.440;2023-05-21T08:13:58;23;22;
72023;PMS5003;59889;50.700;5.440;2023-05-21T08:16:23;20;20;
72023;PMS5003;59889;50.700;5.440;2023-05-21T08:18:48;22;22;
72023;PMS5003;59889;50.700;5.440;2023-05-21T08:21:14;22;20;
72023;PMS5003;59889;50.700;5.440;2023-05-21T08:23:39;27;25;
72023;PMS5003;59889;50.700;5.440;2023-05-21T08:26:04;23;21;
72023;PMS5003;59889;50.700;5.440;2023-05-21T08:28:30;23;21;
72023;PMS5003;59889;50.700;5.440;2023-05-21T08:30:56;24;21;
72023;PMS5003;59889;50.700;5.440;2023-05-21T08:33:21;22;22;
72023;PMS5003;59889;50.700;5.440;2023-05-21T08:35:46;23;22;
72023;PMS5003;59889;50.700;5.440;2023-05-21T08:38:12;20;19;
72023;PMS5003;59889;50.700;5.440;2023-05-21T08:40:37;25;22;
72023;PMS5003;59889;50.700;5.440;2023-05-21T08:43:02;31;28;
72023;PMS5003;59889;50.700;5.440;2023-05-21T08:45:27;27;27;
72023;PMS5003;59889;50.700;5.440;2023-05-21T08:47:53;26;26;
72023;PMS5003;59889;50.700;5.440;2023-05-21T08:50:18;25;22;
72023;PMS5003;59889;50.700;5.440;2023-05-21T08:52:43;24;23;
72023;PMS5003;59889;50.700;5.440;2023-05-21T08:55:09;21;19;
72023;PMS5003;59889;50.700;5.440;2023-05-21T08:57:35;24;23;
72023;PMS5003;59889;50.700;5.440;2023-05-21T09:00:00;27;24;
72023;PMS5003;59889;50.700;5.440;2023-05-21T09:02:25;22;22;
72023;PMS5003;59889;50.700;5.440;2023-05-21T09:04:50;26;24;
72023;PMS5003;59889;50.700;5.440;2023-05-21T09:07:16;22;21;
72023;PMS5003;59889;50.700;5.440;2023-05-21T09:09:42;23;22;
72023;PMS5003;59889;50.700;5.440;2023-05-21T09:12:06;21;21;
72023;PMS5003;59889;50.700;5.440;2023-05-21T09:14:31;24;24;
72023;PMS5003;59889;50.700;5.440;2023-05-21T09:16:57;26;25;
72023;PMS5003;59889;50.700;5.440;2023-05-21T09:19:22;24;23;
72023;PMS5003;59889;50.700;5.440;2023-05-21T09:21:49;24;23;
72023;PMS5003;59889;50.700;5.440;2023-05-21T09:24:13;22;21;
72023;PMS5003;59889;50.700;5.440;2023-05-21T09:26:39;26;24;
72023;PMS5003;59889;50.700;5.440;2023-05-21T09:29:03;26;24;
72023;PMS5003;59889;50.700;5.440;2023-05-21T09:31:28;26;24;
72023;PMS5003;59889;50.700;5.440;2023-05-21T09:33:53;26;25;
72023;PMS5003;59889;50.700;5.440;2023-05-21T09:36:18;24;23;
72023;PMS5003;59889;50.700;5.440;2023-05-21T09:38:43;26;26;
72023;PMS5003;59889;50.700;5.440;2023-05-21T09:41:09;21;21;
72023;PMS5003;59889;50.700;5.440;2023-05-21T09:43:35;24;22;
72023;PMS5003;59889;50.700;5.440;2023-05-21T09:46:00;22;22;
72023;PMS5003;59889;50.700;5.440;2023-05-21T09:48:32;22;21;
72023;PMS5003;59889;50.700;5.440;2023-05-21T09:50:51;21;20;
72023;PMS5003;59889;50.700;5.440;2023-05-21T09:53:16;18;18;
72023;PMS5003;59889;50.700;5.440;2023-05-21T09:55:41;18;18;
72023;PMS5003;59889;50.700;5.440;2023-05-21T09:58:06;25;24;
72023;PMS5003;59889;50.700;5.440;2023-05-21T10:00:31;46;42;
72023;PMS5003;59889;50.700;5.440;2023-05-21T10:02:58;49;44;
72023;PMS5003;59889;50.700;5.440;2023-05-21T10:05:23;57;54;
72023;PMS5003;59889;50.700;5.440;2023-05-21T10:07:48;49;46;
72023;PMS5003;59889;50.700;5.440;2023-05-21T10:10:13;45;40;
72023;PMS5003;59889;50.700;5.440;2023-05-21T10:12:39;40;40;
72023;PMS5003;59889;50.700;5.440;2023-05-21T10:15:04;41;41;
72023;PMS5003;59889;50.700;5.440;2023-05-21T10:17:29;53;49;
72023;PMS5003;59889;50.700;5.440;2023-05-21T10:19:55;39;38;
72023;PMS5003;59889;50.700;5.440;2023-05-21T10:22:21;41;40;
72023;PMS5003;59889;50.700;5.440;2023-05-21T10:24:46;50;47;
72023;PMS5003;59889;50.700;5.440;2023-05-21T10:27:12;46;44;
72023;PMS5003;59889;50.700;5.440;2023-05-21T10:29:37;45;42;
72023;PMS5003;59889;50.700;5.440;2023-05-21T10:32:02;44;42;
72023;PMS5003;59889;50.700;5.440;2023-05-21T10:34:28;42;39;
72023;PMS5003;59889;50.700;5.440;2023-05-21T10:36:53;45;42;
72023;PMS5003;59889;50.700;5.440;2023-05-21T10:39:18;42;41;
72023;PMS5003;59889;50.700;5.440;2023-05-21T10:41:45;45;44;
72023;PMS5003;59889;50.700;5.440;2023-05-21T10:44:10;40;38;
72023;PMS5003;59889;50.700;5.440;2023-05-21T10:46:48;46;44;
72023;PMS5003;59889;50.700;5.440;2023-05-21T10:49:04;47;45;
72023;PMS5003;59889;50.700;5.440;2023-05-21T10:51:25;43;42;
72023;PMS5003;59889;50.700;5.440;2023-05-21T10:53:58;41;39;
72023;PMS5003;59889;50.700;5.440;2023-05-21T10:56:17;38;38;
72023;PMS5003;59889;50.700;5.440;2023-05-21T10:58:50;38;37;
72023;PMS5003;59889;50.700;5.440;2023-05-21T11:01:07;38;37;
72023;PMS5003;59889;50.700;5.440;2023-05-21T11:03:32;38;36;
72023;PMS5003;59889;50.700;5.440;2023-05-21T11:05:58;40;38;
72023;PMS5003;59889;50.700;5.440;2023-05-21T11:08:25;39;37;
72023;PMS5003;59889;50.700;5.440;2023-05-21T11:10:50;35;33;
72023;PMS5003;59889;50.700;5.440;2023-05-21T11:13:15;38;35;
72023;PMS5003;59889;50.700;5.440;2023-05-21T11:18:06;34;32;
72023;PMS5003;59889;50.700;5.440;2023-05-21T11:20:33;29;29;
72023;PMS5003;59889;50.700;5.440;2023-05-21T11:22:57;35;33;
72023;PMS5003;59889;50.700;5.440;2023-05-21T11:25:22;36;32;
72023;PMS5003;59889;50.700;5.440;2023-05-21T11:27:47;35;34;
72023;PMS5003;59889;50.700;5.440;2023-05-21T11:30:14;38;35;
72023;PMS5003;59889;50.700;5.440;2023-05-21T11:32:38;37;36;
72023;PMS5003;59889;50.700;5.440;2023-05-21T11:35:04;33;32;
72023;PMS5003;59889;50.700;5.440;2023-05-21T11:37:30;33;30;
72023;PMS5003;59889;50.700;5.440;2023-05-21T11:39:56;33;32;
72023;PMS5003;59889;50.700;5.440;2023-05-21T11:42:26;33;30;
72023;PMS5003;59889;50.700;5.440;2023-05-21T11:44:46;32;31;
72023;PMS5003;59889;50.700;5.440;2023-05-21T11:47:11;32;30;
72023;PMS5003;59889;50.700;5.440;2023-05-21T11:49:36;35;31;
72023;PMS5003;59889;50.700;5.440;2023-05-21T11:52:02;33;32;
72023;PMS5003;59889;50.700;5.440;2023-05-21T11:54:27;34;33;
72023;PMS5003;59889;50.700;5.440;2023-05-21T11:56:53;29;28;
72023;PMS5003;59889;50.700;5.440;2023-05-21T11:59:18;29;28;
72023;PMS5003;59889;50.700;5.440;2023-05-21T12:01:43;29;28;
72023;PMS5003;59889;50.700;5.440;2023-05-21T12:04:09;28;27;
72023;PMS5003;59889;50.700;5.440;2023-05-21T12:06:34;30;29;
72023;PMS5003;59889;50.700;5.440;2023-05-21T12:08:59;31;28;
72023;PMS5003;59889;50.700;5.440;2023-05-21T12:11:24;32;30;
72023;PMS5003;59889;50.700;5.440;2023-05-21T12:13:50;31;28;
72023;PMS5003;59889;50.700;5.440;2023-05-21T12:16:15;31;29;
72023;PMS5003;59889;50.700;5.440;2023-05-21T12:18:40;29;28;
72023;PMS5003;59889;50.700;5.440;2023-05-21T12:21:06;26;25;
72023;PMS5003;59889;50.700;5.440;2023-05-21T12:23:31;32;30;
72023;PMS5003;59889;50.700;5.440;2023-05-21T12:25:57;26;26;
72023;PMS5003;59889;50.700;5.440;2023-05-21T12:28:22;30;28;
72023;PMS5003;59889;50.700;5.440;2023-05-21T12:30:47;29;28;
72023;PMS5003;59889;50.700;5.440;2023-05-21T12:33:12;27;27;
72023;PMS5003;59889;50.700;5.440;2023-05-21T12:35:37;33;32;
72023;PMS5003;59889;50.700;5.440;2023-05-21T12:38:02;31;27;
72023;PMS5003;59889;50.700;5.440;2023-05-21T12:42:53;29;27;
72023;PMS5003;59889;50.700;5.440;2023-05-21T12:45:18;30;29;
72023;PMS5003;59889;50.700;5.440;2023-05-21T12:47:46;26;25;
72023;PMS5003;59889;50.700;5.440;2023-05-21T12:50:09;30;29;
72023;PMS5003;59889;50.700;5.440;2023-05-21T12:52:34;27;27;
72023;PMS5003;59889;50.700;5.440;2023-05-21T12:54:59;25;23;
72023;PMS5003;59889;50.700;5.440;2023-05-21T12:57:26;31;28;
72023;PMS5003;59889;50.700;5.440;2023-05-21T12:59:51;27;26;
72023;PMS5003;59889;50.700;5.440;2023-05-21T13:02:18;24;24;
72023;PMS5003;59889;50.700;5.440;2023-05-21T13:04:41;29;27;
72023;PMS5003;59889;50.700;5.440;2023-05-21T13:07:06;25;24;
72023;PMS5003;59889;50.700;5.440;2023-05-21T13:09:31;30;29;
72023;PMS5003;59889;50.700;5.440;2023-05-21T13:11:56;34;31;
72023;PMS5003;59889;50.700;5.440;2023-05-21T13:14:22;26;25;
72023;PMS5003;59889;50.700;5.440;2023-05-21T13:16:48;28;26;
72023;PMS5003;59889;50.700;5.440;2023-05-21T13:19:13;28;26;
72023;PMS5003;59889;50.700;5.440;2023-05-21T13:21:39;30;29;
72023;PMS5003;59889;50.700;5.440;2023-05-21T13:24:05;27;26;
72023;PMS5003;59889;50.700;5.440;2023-05-21T13:26:30;27;26;
72023;PMS5003;59889;50.700;5.440;2023-05-21T13:28:56;25;24;
72023;PMS5003;59889;50.700;5.440;2023-05-21T13:31:21;27;26;
72023;PMS5003;59889;50.700;5.440;2023-05-21T13:33:47;25;25;
72023;PMS5003;59889;50.700;5.440;2023-05-21T13:36:12;28;27;
72023;PMS5003;59889;50.700;5.440;2023-05-21T13:38:37;24;24;
72023;PMS5003;59889;50.700;5.440;2023-05-21T13:41:03;24;24;
72023;PMS5003;59889;50.700;5.440;2023-05-21T13:43:28;23;23;
72023;PMS5003;59889;50.700;5.440;2023-05-21T13:45:54;24;24;
72023;PMS5003;59889;50.700;5.440;2023-05-21T13:48:19;26;23;
72023;PMS5003;59889;50.700;5.440;2023-05-21T13:50:45;31;29;
72023;PMS5003;59889;50.700;5.440;2023-05-21T13:53:10;24;23;
72023;PMS5003;59889;50.700;5.440;2023-05-21T13:55:35;29;27;
72023;PMS5003;59889;50.700;5.440;2023-05-21T13:58:01;22;22;
72023;PMS5003;59889;50.700;5.440;2023-05-21T14:00:26;23;22;
72023;PMS5003;59889;50.700;5.440;2023-05-21T14:02:52;25;23;
72023;PMS5003;59889;50.700;5.440;2023-05-21T14:05:17;22;21;
72023;PMS5003;59889;50.700;5.440;2023-05-21T14:07:43;24;24;
72023;PMS5003;59889;50.700;5.440;2023-05-21T14:10:08;26;26;
72023;PMS5003;59889;50.700;5.440;2023-05-21T14:12:34;24;24;
72023;PMS5003;59889;50.700;5.440;2023-05-21T14:14:59;24;24;
72023;PMS5003;59889;50.700;5.440;2023-05-21T14:17:24;25;23;
72023;PMS5003;59889;50.700;5.440;2023-05-21T14:19:49;25;25;
72023;PMS5003;59889;50.700;5.440;2023-05-21T14:22:14;23;21;
72023;PMS5003;59889;50.700;5.440;2023-05-21T14:24:40;23;21;
72023;PMS5003;59889;50.700;5.440;2023-05-21T14:27:05;27;24;
72023;PMS5003;59889;50.700;5.440;2023-05-21T14:29:30;22;21;
72023;PMS5003;59889;50.700;5.440;2023-05-21T14:31:56;21;21;
72023;PMS5003;59889;50.700;5.440;2023-05-21T14:34:22;25;23;
72023;PMS5003;59889;50.700;5.440;2023-05-21T14:36:47;24;22;
72023;PMS5003;59889;50.700;5.440;2023-05-21T14:39:12;24;23;
72023;PMS5003;59889;50.700;5.440;2023-05-21T14:41:38;29;27;
72023;PMS5003;59889;50.700;5.440;2023-05-21T14:44:04;25;22;
72023;PMS5003;59889;50.700;5.440;2023-05-21T14:46:29;22;21;
72023;PMS5003;59889;50.700;5.440;2023-05-21T14:48:54;22;21;
72023;PMS5003;59889;50.700;5.440;2023-05-21T14:51:19;25;23;
72023;PMS5003;59889;50.700;5.440;2023-05-21T14:53:45;25;23;
72023;PMS5003;59889;50.700;5.440;2023-05-21T14:56:11;26;25;
72023;PMS5003;59889;50.700;5.440;2023-05-21T14:58:36;22;21;
72023;PMS5003;59889;50.700;5.440;2023-05-21T15:01:01;24;24;
72023;PMS5003;59889;50.700;5.440;2023-05-21T15:03:27;22;21;
72023;PMS5003;59889;50.700;5.440;2023-05-21T15:05:52;22;21;
72023;PMS5003;59889;50.700;5.440;2023-05-21T15:08:17;23;23;
72023;PMS5003;59889;50.700;5.440;2023-05-21T15:10:42;26;23;
72023;PMS5003;59889;50.700;5.440;2023-05-21T15:13:07;22;20;
72023;PMS5003;59889;50.700;5.440;2023-05-21T15:15:33;23;23;
72023;PMS5003;59889;50.700;5.440;2023-05-21T15:17:59;20;19;
72023;PMS5003;59889;50.700;5.440;2023-05-21T15:20:24;24;22;
72023;PMS5003;59889;50.700;5.440;2023-05-21T15:22:49;22;22;
72023;PMS5003;59889;50.700;5.440;2023-05-21T15:25:15;25;23;
72023;PMS5003;59889;50.700;5.440;2023-05-21T15:27:40;23;22;
72023;PMS5003;59889;50.700;5.440;2023-05-21T15:30:06;21;20;
72023;PMS5003;59889;50.700;5.440;2023-05-21T15:32:30;23;23;
72023;PMS5003;59889;50.700;5.440;2023-05-21T15:34:55;22;21;
72023;PMS5003;59889;50.700;5.440;2023-05-21T15:37:21;24;22;
72023;PMS5003;59889;50.700;5.440;2023-05-21T15:39:46;18;18;
72023;PMS5003;59889;50.700;5.440;2023-05-21T15:42:11;25;23;
72023;PMS5003;59889;50.700;5.440;2023-05-21T15:44:36;21;20;
72023;PMS5003;59889;50.700;5.440;2023-05-21T15:47:01;23;22;
72023;PMS5003;59889;50.700;5.440;2023-05-21T15:49:26;21;21;
72023;PMS5003;59889;50.700;5.440;2023-05-21T15:51:51;22;22;
72023;PMS5003;59889;50.700;5.440;2023-05-21T15:54:16;22;22;
72023;PMS5003;59889;50.700;5.440;2023-05-21T15:56:42;23;22;
72023;PMS5003;59889;50.700;5.440;2023-05-21T15:59:07;28;27;
72023;PMS5003;59889;50.700;5.440;2023-05-21T16:01:33;25;23;
72023;PMS5003;59889;50.700;5.440;2023-05-21T16:03:59;27;27;
72023;PMS5003;59889;50.700;5.440;2023-05-21T16:06:24;28;27;
72023;PMS5003;59889;50.700;5.440;2023-05-21T16:08:49;28;28;
72023;PMS5003;59889;50.700;5.440;2023-05-21T16:11:15;30;28;
72023;PMS5003;59889;50.700;5.440;2023-05-21T16:13:40;28;26;
72023;PMS5003;59889;50.700;5.440;2023-05-21T16:16:06;32;30;